createdAt,value
2023-02-08T00:01:39.691Z,103944.97
2023-02-08T00:04:08.918Z,103942.38
2023-02-08T00:06:37.993Z,103939.88
2023-02-08T00:09:09.001Z,103934.78
2023-02-08T00:11:38.110Z,103921.06
2023-02-08T00:14:08.773Z,103922.66
2023-02-08T00:16:37.895Z,103921.78
2023-02-08T00:19:06.924Z,103915.84
2023-02-08T00:21:36.407Z,103905.41
2023-02-08T00:24:07.352Z,103910.66
2023-02-08T00:26:36.402Z,103910.59
2023-02-08T00:29:05.436Z,103914.00
2023-02-08T00:31:36.797Z,103920.03
2023-02-08T00:34:06.500Z,103913.16
2023-02-08T00:36:35.590Z,103903.81
2023-02-08T00:39:04.713Z,103909.00
2023-02-08T00:41:35.148Z,103903.88
2023-02-08T00:44:04.182Z,103907.22
2023-02-08T00:46:33.366Z,103908.84
2023-02-08T00:49:02.453Z,103901.16
2023-02-08T00:51:31.936Z,103901.81
2023-02-08T00:54:00.976Z,103904.34
2023-02-08T00:56:30.003Z,103902.66
2023-02-08T00:59:03.092Z,103900.88
2023-02-08T01:01:32.151Z,103905.16
2023-02-08T01:04:01.291Z,103913.69
2023-02-08T01:06:30.739Z,103918.50
2023-02-08T01:08:59.855Z,103920.03
2023-02-08T01:11:29.134Z,103914.22
2023-02-08T01:13:59.280Z,103908.13
2023-02-08T01:16:32.196Z,103915.50
2023-02-08T01:19:03.999Z,103918.84
2023-02-08T01:21:35.707Z,103920.44
2023-02-08T01:24:05.880Z,103914.44
2023-02-08T01:26:35.515Z,103904.97
2023-02-08T01:29:08.633Z,103904.78
2023-02-08T01:31:41.237Z,103893.53
2023-02-08T01:34:11.691Z,103898.41
2023-02-08T01:36:41.584Z,103893.22
2023-02-08T01:39:12.998Z,103886.28
2023-02-08T01:41:44.327Z,103892.00
2023-02-08T01:44:51.029Z,103889.94
2023-02-08T01:47:21.622Z,103898.44
2023-02-08T01:49:50.699Z,103898.19
2023-02-08T01:52:22.989Z,103895.63
2023-02-08T01:54:56.794Z,103904.63
2023-02-08T01:57:27.408Z,103899.94
2023-02-08T02:00:01.837Z,103888.25
2023-02-08T02:02:32.706Z,103888.81
2023-02-08T02:05:03.143Z,103889.56
2023-02-08T02:07:32.828Z,103886.03
2023-02-08T02:10:08.510Z,103891.25
2023-02-08T02:12:40.210Z,103891.13
2023-02-08T02:15:11.128Z,103902.84
2023-02-08T02:17:41.611Z,103899.09
2023-02-08T02:20:19.521Z,103897.88
2023-02-08T02:23:15.985Z,103888.25
2023-02-08T02:25:58.134Z,103880.50
2023-02-08T02:28:53.096Z,103888.84
2023-02-08T02:32:09.447Z,103892.84
2023-02-08T02:34:46.606Z,103897.88
2023-02-08T02:37:28.795Z,103895.22
2023-02-08T02:40:20.644Z,103901.38
2023-02-08T02:43:21.319Z,103906.41
2023-02-08T02:45:58.082Z,103899.81
2023-02-08T02:48:34.141Z,103907.59
2023-02-08T02:51:09.824Z,103897.66
2023-02-08T02:53:48.690Z,103912.94
2023-02-08T02:56:23.145Z,103897.66
2023-02-08T02:58:54.040Z,103899.34
2023-02-08T03:01:26.010Z,103897.34
2023-02-08T03:03:55.725Z,103899.69
2023-02-08T03:06:37.917Z,103896.91
2023-02-08T03:09:20.593Z,103895.03
2023-02-08T03:11:57.704Z,103900.91
2023-02-08T03:14:37.169Z,103904.28
2023-02-08T03:17:28.280Z,103913.75
2023-02-08T03:20:06.332Z,103914.41
2023-02-08T03:22:44.978Z,103913.41
2023-02-08T03:25:20.184Z,103923.69
2023-02-08T03:27:56.481Z,103923.25
2023-02-08T03:30:36.452Z,103919.84
2023-02-08T03:33:12.800Z,103912.88
2023-02-08T03:35:46.680Z,103922.19
2023-02-08T03:38:22.994Z,103911.44
2023-02-08T03:40:55.921Z,103911.16
2023-02-08T03:43:29.075Z,103901.91
2023-02-08T03:46:07.502Z,103911.00
2023-02-08T03:48:39.778Z,103912.63
2023-02-08T03:51:10.090Z,103901.50
2023-02-08T03:53:43.099Z,103909.16
2023-02-08T03:56:18.862Z,103910.84
2023-02-08T03:58:55.942Z,103924.16
2023-02-08T04:01:30.245Z,103917.25
2023-02-08T04:04:00.863Z,103914.44
2023-02-08T04:06:30.225Z,103912.06
2023-02-08T04:09:00.673Z,103922.13
2023-02-08T04:11:29.797Z,103916.63
2023-02-08T04:13:58.839Z,103916.78
2023-02-08T04:16:27.984Z,103914.84
2023-02-08T04:18:57.017Z,103911.31
2023-02-08T04:21:26.096Z,103913.22
2023-02-08T04:23:55.150Z,103907.66
2023-02-08T04:26:28.386Z,103906.41
2023-02-08T04:28:57.458Z,103909.09
2023-02-08T04:31:26.578Z,103897.47
2023-02-08T04:33:55.684Z,103893.34
2023-02-08T04:36:24.811Z,103890.88
2023-02-08T04:38:53.837Z,103893.81
2023-02-08T04:41:24.489Z,103886.22
2023-02-08T04:43:53.538Z,103893.28
2023-02-08T04:46:22.654Z,103884.66
2023-02-08T04:48:51.887Z,103890.47
2023-02-08T04:51:20.923Z,103884.53
2023-02-08T04:53:50.040Z,103889.53
2023-02-08T04:56:19.277Z,103883.53
2023-02-08T04:58:49.744Z,103891.28
2023-02-08T05:01:18.960Z,103881.03
2023-02-08T05:03:48.747Z,103889.81
2023-02-08T05:06:17.863Z,103888.94
2023-02-08T05:08:46.941Z,103887.09
2023-02-08T05:11:21.904Z,103881.25
2023-02-08T05:13:53.000Z,103876.03
2023-02-08T05:16:22.141Z,103872.47
2023-02-08T05:18:51.258Z,103870.91
2023-02-08T05:21:23.818Z,103878.69
2023-02-08T05:23:53.275Z,103881.03
2023-02-08T05:26:22.847Z,103882.88
2023-02-08T05:28:53.478Z,103882.91
2023-02-08T05:31:24.273Z,103881.16
2023-02-08T05:33:54.184Z,103877.00
2023-02-08T05:36:24.101Z,103866.53
2023-02-08T05:38:53.609Z,103870.94
2023-02-08T05:41:22.698Z,103874.34
2023-02-08T05:43:53.112Z,103871.00
2023-02-08T05:46:22.333Z,103877.72
2023-02-08T05:48:51.487Z,103871.81
2023-02-08T05:51:21.255Z,103865.59
2023-02-08T05:53:50.293Z,103869.09
2023-02-08T05:56:19.656Z,103862.44
2023-02-08T05:58:48.842Z,103856.38
2023-02-08T06:01:19.470Z,103865.84
2023-02-08T06:03:48.740Z,103871.66
2023-02-08T06:06:17.800Z,103877.66
2023-02-08T06:08:47.065Z,103875.09
2023-02-08T06:11:16.946Z,103880.41
2023-02-08T06:13:46.157Z,103882.78
2023-02-08T06:16:18.921Z,103888.84
2023-02-08T06:18:50.213Z,103898.22
2023-02-08T06:21:19.436Z,103891.41
2023-02-08T06:23:48.542Z,103893.09
2023-02-08T06:26:18.968Z,103882.91
2023-02-08T06:28:48.075Z,103888.84
2023-02-08T06:31:17.532Z,103894.78
2023-02-08T06:33:46.981Z,103889.59
2023-02-08T06:36:18.277Z,103886.09
2023-02-08T06:38:48.973Z,103890.41
2023-02-08T06:41:19.146Z,103887.75
2023-02-08T06:43:48.346Z,103882.72
2023-02-08T06:46:17.659Z,103874.16
2023-02-08T06:48:46.972Z,103881.78
2023-02-08T06:51:17.840Z,103881.03
2023-02-08T06:53:47.285Z,103878.28
2023-02-08T06:56:16.546Z,103885.09
2023-02-08T06:58:45.946Z,103884.25
2023-02-08T07:01:15.793Z,103885.22
2023-02-08T07:03:44.956Z,103887.72
2023-02-08T07:06:16.690Z,103884.47
2023-02-08T07:08:46.059Z,103886.28
2023-02-08T07:11:17.611Z,103886.22
2023-02-08T07:13:48.920Z,103881.34
2023-02-08T07:16:19.345Z,103883.16
2023-02-08T07:18:48.883Z,103875.75
2023-02-08T07:21:19.515Z,103869.94
2023-02-08T07:23:48.754Z,103873.25
2023-02-08T07:26:19.023Z,103887.06
2023-02-08T07:28:48.116Z,103883.50
2023-02-08T07:31:18.599Z,103877.81
2023-02-08T07:33:47.652Z,103866.63
2023-02-08T07:36:18.175Z,103869.06
2023-02-08T07:38:47.184Z,103874.19
2023-02-08T07:41:17.753Z,103881.13
2023-02-08T07:43:46.852Z,103876.19
2023-02-08T07:46:19.540Z,103882.78
2023-02-08T07:48:49.825Z,103876.97
2023-02-08T07:51:20.315Z,103879.38
2023-02-08T07:53:49.439Z,103875.22
2023-02-08T07:56:20.375Z,103872.03
2023-02-08T07:58:49.757Z,103874.06
2023-02-08T08:01:22.615Z,103863.97
2023-02-08T08:03:52.987Z,103874.88
2023-02-08T08:06:24.357Z,103864.78
2023-02-08T08:08:53.690Z,103873.22
2023-02-08T08:11:23.597Z,103865.03
2023-02-08T08:13:53.424Z,103858.50
2023-02-08T08:16:22.640Z,103857.16
2023-02-08T08:18:51.794Z,103863.78
2023-02-08T08:21:22.245Z,103864.66
2023-02-08T08:23:51.283Z,103864.69
2023-02-08T08:26:22.233Z,103864.69
2023-02-08T08:28:51.425Z,103860.75
2023-02-08T08:31:22.480Z,103854.13
2023-02-08T08:33:51.840Z,103856.63
2023-02-08T08:36:22.355Z,103854.31
2023-02-08T08:38:52.401Z,103859.50
2023-02-08T08:41:22.335Z,103857.94
2023-02-08T08:43:51.544Z,103863.94
2023-02-08T08:46:20.875Z,103857.25
2023-02-08T08:48:51.615Z,103857.53
2023-02-08T08:51:22.114Z,103849.16
2023-02-08T08:53:51.279Z,103846.97
2023-02-08T08:56:20.344Z,103852.19
2023-02-08T08:58:49.574Z,103852.97
2023-02-08T09:01:18.660Z,103854.31
2023-02-08T09:03:47.773Z,103844.03
2023-02-08T09:06:17.256Z,103840.59
2023-02-08T09:08:49.269Z,103845.94
2023-02-08T09:11:20.054Z,103851.09
2023-02-08T09:13:52.763Z,103862.16
2023-02-08T09:16:21.878Z,103852.94
2023-02-08T09:18:51.285Z,103851.59
2023-02-08T09:21:22.214Z,103849.22
2023-02-08T09:23:52.861Z,103854.50
2023-02-08T09:26:22.859Z,103840.97
2023-02-08T09:28:52.101Z,103841.16
2023-02-08T09:31:23.826Z,103850.25
2023-02-08T09:33:54.643Z,103845.22
2023-02-08T09:36:25.261Z,103857.88
2023-02-08T09:39:00.395Z,103851.47
2023-02-08T09:41:52.518Z,103848.81
2023-02-08T09:44:30.128Z,103845.41
2023-02-08T09:47:04.096Z,103844.72
2023-02-08T09:49:37.867Z,103843.00
2023-02-08T09:52:12.403Z,103842.16
2023-02-08T09:54:47.474Z,103838.69
2023-02-08T09:57:22.281Z,103845.47
2023-02-08T09:59:57.639Z,103843.84
2023-02-08T10:02:29.779Z,103841.25
2023-02-08T10:05:02.728Z,103840.47
2023-02-08T10:07:33.446Z,103846.63
2023-02-08T10:10:07.107Z,103845.69
2023-02-08T10:12:47.802Z,103838.09
2023-02-08T10:15:30.338Z,103839.88
2023-02-08T10:18:25.993Z,103840.69
2023-02-08T10:21:15.807Z,103841.66
2023-02-08T10:24:01.311Z,103856.25
2023-02-08T10:26:40.921Z,103858.00
2023-02-08T10:29:28.236Z,103851.13
2023-02-08T10:32:40.884Z,103847.66
2023-02-08T10:35:14.090Z,103853.66
2023-02-08T10:37:46.289Z,103852.81
2023-02-08T10:40:25.250Z,103846.78
2023-02-08T10:43:06.619Z,103842.47
2023-02-08T10:45:44.016Z,103850.22
2023-02-08T10:48:17.506Z,103845.09
2023-02-08T10:50:48.125Z,103837.34
2023-02-08T10:53:20.333Z,103839.06
2023-02-08T10:55:50.513Z,103833.03
2023-02-08T10:58:22.965Z,103836.47
2023-02-08T11:00:52.807Z,103833.88
2023-02-08T11:03:24.360Z,103833.84
2023-02-08T11:05:53.958Z,103832.16
2023-02-08T11:08:24.496Z,103833.81
2023-02-08T11:11:01.688Z,103832.13
2023-02-08T11:13:37.608Z,103827.75
2023-02-08T11:16:08.869Z,103825.19
2023-02-08T11:18:41.257Z,103820.03
2023-02-08T11:21:21.813Z,103815.63
2023-02-08T11:23:53.887Z,103813.88
2023-02-08T11:26:26.400Z,103809.47
2023-02-08T11:29:03.914Z,103805.84
2023-02-08T11:31:36.013Z,103812.06
2023-02-08T11:34:07.055Z,103810.28
2023-02-08T11:36:38.180Z,103814.19
2023-02-08T11:39:23.940Z,103800.13
2023-02-08T11:41:55.245Z,103796.41
2023-02-08T11:44:28.954Z,103807.88
2023-02-08T11:47:01.046Z,103800.94
2023-02-08T11:49:36.966Z,103796.41
2023-02-08T11:52:08.459Z,103794.34
2023-02-08T11:54:41.200Z,103792.91
2023-02-08T11:57:16.376Z,103795.91
2023-02-08T11:59:47.099Z,103788.53
2023-02-08T12:02:46.640Z,103786.97
2023-02-08T12:05:18.821Z,103779.75
2023-02-08T12:08:00.845Z,103781.88
2023-02-08T12:10:52.212Z,103767.75
2023-02-08T12:13:40.964Z,103772.16
2023-02-08T12:16:36.681Z,103755.78
2023-02-08T12:19:43.616Z,103763.72
2023-02-08T12:22:17.947Z,103754.88
2023-02-08T12:24:51.988Z,103751.97
2023-02-08T12:27:39.737Z,103747.88
2023-02-08T12:30:20.056Z,103740.88
2023-02-08T12:33:19.581Z,103741.41
2023-02-08T12:36:07.197Z,103732.16
2023-02-08T12:39:19.095Z,103727.28
2023-02-08T12:42:12.540Z,103716.91
2023-02-08T12:44:52.909Z,103716.03
2023-02-08T12:47:36.408Z,103706.91
2023-02-08T12:50:15.521Z,103703.84
2023-02-08T12:52:48.120Z,103710.00
2023-02-08T12:55:22.733Z,103700.78
2023-02-08T12:57:55.536Z,103695.88
2023-02-08T13:00:28.678Z,103689.66
2023-02-08T13:03:06.916Z,103682.94
2023-02-08T13:05:46.233Z,103679.34
2023-02-08T13:08:30.547Z,103678.47
2023-02-08T13:11:18.883Z,103675.44
2023-02-08T13:13:57.789Z,103673.81
2023-02-08T13:16:34.001Z,103671.16
2023-02-08T13:19:22.893Z,103669.84
2023-02-08T13:21:54.366Z,103663.25
2023-02-08T13:24:35.697Z,103657.00
2023-02-08T13:27:06.929Z,103656.13
2023-02-08T13:29:37.054Z,103667.66
2023-02-08T13:32:12.391Z,103655.81
2023-02-08T13:34:47.584Z,103656.50
2023-02-08T13:37:25.686Z,103650.09
2023-02-08T13:40:02.628Z,103645.53
2023-02-08T13:42:38.126Z,103640.47
2023-02-08T13:45:09.430Z,103634.34
2023-02-08T13:47:45.285Z,103634.69
2023-02-08T13:50:39.699Z,103628.16
2023-02-08T13:53:10.674Z,103625.16
2023-02-08T13:55:58.689Z,103623.22
2023-02-08T13:58:36.387Z,103624.22
2023-02-08T14:01:19.944Z,103612.16
2023-02-08T14:04:17.430Z,103613.34
2023-02-08T14:06:55.368Z,103606.47
2023-02-08T14:09:31.971Z,103607.31
2023-02-08T14:12:06.295Z,103609.63
2023-02-08T14:14:38.647Z,103611.19
2023-02-08T14:17:19.050Z,103610.47
2023-02-08T14:19:58.900Z,103602.91
2023-02-08T14:22:32.158Z,103608.47
2023-02-08T14:25:05.850Z,103605.81
2023-02-08T14:27:42.135Z,103586.50
2023-02-08T14:30:27.695Z,103579.53
2023-02-08T14:33:13.400Z,103580.97
2023-02-08T14:35:51.490Z,103575.75
2023-02-08T14:38:48.820Z,103578.53
2023-02-08T14:41:47.866Z,103575.44
2023-02-08T14:44:53.673Z,103572.28
2023-02-08T14:48:01.788Z,103576.81
2023-02-08T14:50:44.037Z,103572.28
2023-02-08T14:53:37.885Z,103563.78
2023-02-08T14:56:17.238Z,103553.16
2023-02-08T14:58:51.774Z,103562.28
2023-02-08T15:01:23.098Z,103555.69
2023-02-08T15:03:56.968Z,103559.59
2023-02-08T15:06:53.641Z,103560.41
2023-02-08T15:09:26.017Z,103563.13
2023-02-08T15:12:02.399Z,103559.28
2023-02-08T15:14:35.389Z,103554.31
2023-02-08T15:17:04.593Z,103555.59
2023-02-08T15:19:38.336Z,103560.69
2023-02-08T15:22:29.244Z,103551.97
2023-02-08T15:25:01.716Z,103555.63
2023-02-08T15:27:32.373Z,103548.75
2023-02-08T15:30:02.900Z,103548.88
2023-02-08T15:32:32.113Z,103550.13
2023-02-08T15:35:02.782Z,103540.53
2023-02-08T15:37:33.929Z,103532.91
2023-02-08T15:40:04.647Z,103527.91
2023-02-08T15:42:35.584Z,103520.16
2023-02-08T15:45:23.423Z,103526.28
2023-02-08T15:47:54.488Z,103522.94
2023-02-08T15:50:25.523Z,103529.00
2023-02-08T15:52:59.868Z,103535.16
2023-02-08T15:55:32.577Z,103537.91
2023-02-08T15:58:04.212Z,103536.19
2023-02-08T16:00:38.339Z,103526.81
2023-02-08T16:03:10.692Z,103525.97
2023-02-08T16:05:40.003Z,103516.53
2023-02-08T16:08:09.285Z,103532.16
2023-02-08T16:10:44.626Z,103530.56
2023-02-08T16:13:21.228Z,103518.44
2023-02-08T16:16:07.232Z,103519.31
2023-02-08T16:18:41.980Z,103520.31
2023-02-08T16:21:29.167Z,103515.19
2023-02-08T16:23:59.932Z,103516.16
2023-02-08T16:26:32.230Z,103507.47
2023-02-08T16:29:02.989Z,103500.63
2023-02-08T16:31:36.310Z,103493.00
2023-02-08T16:34:08.312Z,103499.91
2023-02-08T16:36:41.223Z,103485.31
2023-02-08T16:39:46.858Z,103482.84
2023-02-08T16:42:29.466Z,103486.28
2023-02-08T16:45:13.644Z,103486.13
2023-02-08T16:47:46.092Z,103483.66
2023-02-08T16:50:17.424Z,103477.72
2023-02-08T16:52:48.785Z,103478.47
2023-02-08T16:55:21.162Z,103476.84
2023-02-08T16:57:53.108Z,103469.03
2023-02-08T17:00:26.523Z,103465.63
2023-02-08T17:02:57.807Z,103469.09
2023-02-08T17:05:29.474Z,103472.56
2023-02-08T17:07:59.231Z,103469.09
2023-02-08T17:10:30.055Z,103456.25
2023-02-08T17:13:17.395Z,103450.16
2023-02-08T17:15:49.093Z,103455.34
2023-02-08T17:18:19.822Z,103451.94
2023-02-08T17:20:49.301Z,103454.56
2023-02-08T17:23:18.417Z,103448.50
2023-02-08T17:25:47.653Z,103442.53
2023-02-08T17:28:19.537Z,103435.69
2023-02-08T17:30:50.013Z,103438.25
2023-02-08T17:33:20.837Z,103427.91
2023-02-08T17:35:51.761Z,103438.28
2023-02-08T17:38:22.139Z,103424.50
2023-02-08T17:40:51.374Z,103431.47
2023-02-08T17:43:25.830Z,103424.56
2023-02-08T17:46:06.993Z,103423.75
2023-02-08T17:48:38.815Z,103426.34
2023-02-08T17:51:16.193Z,103429.81
2023-02-08T17:54:07.853Z,103435.88
2023-02-08T17:56:37.103Z,103435.03
2023-02-08T17:59:06.585Z,103430.72
2023-02-08T18:01:39.815Z,103427.31
2023-02-08T18:04:13.425Z,103416.09
2023-02-08T18:06:44.550Z,103412.69
2023-02-08T18:09:16.804Z,103419.56
2023-02-08T18:11:49.537Z,103417.81
2023-02-08T18:14:20.316Z,103413.53
2023-02-08T18:16:54.768Z,103409.22
2023-02-08T18:19:39.845Z,103397.16
2023-02-08T18:22:10.962Z,103399.78
2023-02-08T18:24:40.316Z,103400.59
2023-02-08T18:27:12.484Z,103399.75
2023-02-08T18:29:46.326Z,103402.34
2023-02-08T18:32:21.914Z,103395.44
2023-02-08T18:34:52.526Z,103394.59
2023-02-08T18:37:23.370Z,103398.91
2023-02-08T18:40:06.594Z,103389.47
2023-02-08T18:42:38.596Z,103391.19
2023-02-08T18:45:08.559Z,103387.72
2023-02-08T18:47:39.286Z,103383.47
2023-02-08T18:50:11.219Z,103373.97
2023-02-08T18:52:40.327Z,103371.41
2023-02-08T18:55:12.924Z,103374.00
2023-02-08T18:57:44.792Z,103361.09
2023-02-08T19:00:21.819Z,103362.81
2023-02-08T19:02:53.355Z,103355.94
2023-02-08T19:05:24.385Z,103348.19
2023-02-08T19:07:56.900Z,103355.94
2023-02-08T19:10:26.012Z,103347.38
2023-02-08T19:12:55.374Z,103352.53
2023-02-08T19:15:27.598Z,103351.66
2023-02-08T19:17:59.737Z,103351.66
2023-02-08T19:20:45.933Z,103351.63
2023-02-08T19:23:28.414Z,103343.91
2023-02-08T19:26:20.505Z,103346.50
2023-02-08T19:28:54.576Z,103363.69
2023-02-08T19:31:31.119Z,103356.81
2023-02-08T19:34:17.830Z,103349.91
2023-02-08T19:36:59.580Z,103351.63
2023-02-08T19:39:32.107Z,103355.94
2023-02-08T19:42:04.553Z,103356.78
2023-02-08T19:44:41.928Z,103356.78
2023-02-08T19:47:16.615Z,103349.06
2023-02-08T19:49:49.658Z,103337.88
2023-02-08T19:52:47.575Z,103345.59
2023-02-08T19:55:24.556Z,103333.56
2023-02-08T19:58:03.761Z,103335.25
2023-02-08T20:01:07.128Z,103327.53
2023-02-08T20:03:36.982Z,103324.94
2023-02-08T20:06:06.527Z,103328.41
2023-02-08T20:08:42.224Z,103322.38
2023-02-08T20:11:18.755Z,103320.63
2023-02-08T20:13:48.378Z,103328.34
2023-02-08T20:16:19.363Z,103320.59
2023-02-08T20:18:52.083Z,103319.75
2023-02-08T20:21:22.425Z,103313.72
2023-02-08T20:23:52.931Z,103303.41
2023-02-08T20:26:23.735Z,103312.00
2023-02-08T20:28:55.061Z,103318.00
2023-02-08T20:31:28.038Z,103312.88
2023-02-08T20:34:03.280Z,103311.16
2023-02-08T20:36:33.658Z,103325.72
2023-02-08T20:39:05.057Z,103328.28
2023-02-08T20:41:35.516Z,103316.25
2023-02-08T20:44:04.739Z,103318.84
2023-02-08T20:46:35.714Z,103318.81
2023-02-08T20:49:06.800Z,103308.50
2023-02-08T20:51:37.432Z,103316.19
2023-02-08T20:54:08.587Z,103309.31
2023-02-08T20:56:39.079Z,103317.06
2023-02-08T20:59:10.055Z,103321.38
2023-02-08T21:01:39.245Z,103317.03
2023-02-08T21:04:08.359Z,103317.91
2023-02-08T21:06:38.567Z,103311.88
2023-02-08T21:09:12.861Z,103313.56
2023-02-08T21:11:42.045Z,103310.97
2023-02-08T21:14:18.512Z,103317.84
2023-02-08T21:16:48.657Z,103311.88
2023-02-08T21:19:19.333Z,103304.09
2023-02-08T21:21:52.667Z,103309.28
2023-02-08T21:24:23.804Z,103306.69
2023-02-08T21:26:53.187Z,103300.63
2023-02-08T21:29:23.118Z,103299.78
2023-02-08T21:31:54.164Z,103294.63
2023-02-08T21:34:23.645Z,103294.63
2023-02-08T21:36:52.940Z,103287.75
2023-02-08T21:39:24.231Z,103288.56
2023-02-08T21:41:55.441Z,103286.00
2023-02-08T21:44:25.058Z,103273.13
2023-02-08T21:46:54.135Z,103276.56
2023-02-08T21:49:40.865Z,103281.66
2023-02-08T21:52:29.118Z,103276.47
2023-02-08T21:54:59.795Z,103267.88
2023-02-08T21:57:37.805Z,103255.88
2023-02-08T22:00:10.197Z,103254.16
2023-02-08T22:02:41.948Z,103247.31
2023-02-08T22:05:11.044Z,103243.00
2023-02-08T22:07:45.863Z,103233.63
2023-02-08T22:10:18.665Z,103240.47
2023-02-08T22:12:48.519Z,103231.00
2023-02-08T22:15:20.508Z,103232.69
2023-02-08T22:17:52.689Z,103226.69
2023-02-08T22:20:22.486Z,103217.25
2023-02-08T22:22:55.025Z,103220.69
2023-02-08T22:25:26.263Z,103212.97
2023-02-08T22:27:55.357Z,103224.06
2023-02-08T22:30:25.765Z,103218.94
2023-02-08T22:32:54.878Z,103219.78
2023-02-08T22:35:24.154Z,103212.03
2023-02-08T22:37:53.214Z,103220.59
2023-02-08T22:40:22.518Z,103215.44
2023-02-08T22:42:52.990Z,103209.38
2023-02-08T22:45:22.107Z,103214.53
2023-02-08T22:47:51.194Z,103203.41
2023-02-08T22:50:20.331Z,103210.25
2023-02-08T22:52:49.474Z,103213.66
2023-02-08T22:55:18.795Z,103205.91
2023-02-08T22:57:48.019Z,103204.19
2023-02-08T23:00:18.987Z,103198.16
2023-02-08T23:02:48.152Z,103186.22
2023-02-08T23:05:17.305Z,103189.59
2023-02-08T23:07:46.416Z,103186.16
2023-02-08T23:10:15.614Z,103189.59
2023-02-08T23:12:44.698Z,103192.13
2023-02-08T23:15:13.718Z,103183.56
2023-02-08T23:17:44.214Z,103179.25
2023-02-08T23:20:13.632Z,103183.56
2023-02-08T23:22:42.773Z,103175.88
2023-02-08T23:25:12.155Z,103174.16
2023-02-08T23:27:41.152Z,103169.88
2023-02-08T23:30:12.289Z,103167.28
2023-02-08T23:32:43.462Z,103158.66
2023-02-08T23:35:13.086Z,103153.50
2023-02-08T23:37:42.261Z,103144.06
2023-02-08T23:40:13.066Z,103153.50
2023-02-08T23:42:42.107Z,103143.22
2023-02-08T23:45:11.868Z,103148.38
2023-02-08T23:47:42.331Z,103147.53
2023-02-08T23:50:13.208Z,103139.81
2023-02-08T23:52:42.353Z,103144.16
2023-02-08T23:55:11.467Z,103144.97
2023-02-08T23:57:40.792Z,103139.75
